Friday, January 18, 2019, 11:16 PM EST
Back to Local

KMWN, Mount Washington

Location: Bretton Woods, NH, United States Lat: 44.267
Local Time: 11:16 PM EST ( 4:16 GMT) Lon: -71.3
Time Zone: US/Eastern Elev: 6263 ft

Show me the last for .
Show Coded

Time T Td Feel RH Dir Speed Gust Alt SLP Vis Weather Sky Remarks
2019-01-18 22:47 1 1 -33 100 280° 72 75 - - 0 FZFG BLSN VV001 None
2019-01-18 21:50 3 3 -32 100 290° 77 86 - - 0 FZFG BLSN VV000 None
2019-01-18 20:49 5 5 -28 100 290° 68 75 - - 0 FZFG BLSN VV001 None
2019-01-18 19:52 9 9 -24 100 280° 74 83 - - 0 FZFG BLSN VV001 None
2019-01-18 18:51 7 7 -26 100 280° 68 76 - - 0 -SN FZFG BLSN VV001 6-hr Precip Total (7pm): 0.09"
Snow depth: 15"
6-hr Min Temp (7pm): 7.5°F
6-hr Max Temp (7pm): 10.0°F
2019-01-18 17:49 9 9 -22 100 280° 66 - - - 0 -SN FZFG BLSN VV001 None
2019-01-18 16:55 10 10 -19 100 270° 60 67 - - 0 -SN FZFG BLSN VV001 None
2019-01-18 15:53 9 9 -19 100 260° 49 - - - 0 -SN FZFG BLSN VV000 None
2019-01-18 13:54 10 10 -17 100 240° 46 53 - - 0 -SHSN FZFG BLSN VV001 None
2019-01-18 12:57 9 9 -19 100 240° 39 48 - - 0 -SHSN FZFG BLSN VV001 6-hr Precip Total (1pm): 0.02"
Snow depth: 15"
6-hr Min Temp (1pm): 0.5°F
6-hr Max Temp (1pm): 9.5°F
2019-01-18 11:53 9 9 -17 100 240° 33 43 - - 0 FZFG DRSN VV001 None
2019-01-18 10:57 9 9 -19 100 250° 38 48 - - 0 -SHSN FZFG VV001 None
2019-01-18 09:51 7 7 -21 100 240° 36 46 - - 0 -SHSN FZFG VV001 None
2019-01-18 08:47 5 5 -23 100 240° 39 44 - - 0 -SHSN FZFG VV001 None
2019-01-18 07:59 3 3 -24 100 240° 38 - - - 0 SHSN FZFG VV001 None
2019-01-18 06:57 1 1 -27 100 230° 37 43 - - 0 SHSN FZFG VV001 6-hr Precip Total (7am): 0.00"
Snow depth: 14"
6-hr Min Temp (7am): -3.6°F
6-hr Max Temp (7am): 3.6°F
2019-01-18 05:53 -2 -2 -34 100 230° 40 48 - - 0 SHSN FZFG VV001 None
2019-01-18 04:51 0 0 -32 100 230° 38 52 - - 0 SHSN FZFG VV001 None
2019-01-18 03:54 -4 -6 -35 91 200° 38 44 - - 30 SHSN FEW010 OVC040 None
2019-01-18 02:56 -2 -13 -32 58 220° 25 39 - - 100 SCT080 BKN100 OVC140 Virga in the vinicity
2019-01-18 01:51 1 -2 -28 84 220° 37 45 - - 35 -SHSN SCT010 OVC050 None
2019-01-18 00:56 3 -6 -25 65 230° 38 43 - - 60 OVC050 Virga in the vinicity
Snow depth: 14"
6-hr Min Temp (1am): -1.8°F
6-hr Max Temp (1am): 4.3°F
2019-01-17 23:47 3 -9 -25 54 240° 36 41 - - 120 SCT040 BKN060 OVC180 None

Support USWX by starting your Amazon purchase here.